Time;durP1;ratioP1;P1;durP2;ratioP2;P2;SDS_P1;SDS_P2;PMS_P1;PMS_P2;Temp;Humidity;BMP_temperature;BMP_pressure;BME280_temperature;BME280_humidity;BME280_pressure;Samples;Min_cycle;Max_cycle;Signal;HPM_P1;HPM_P2
2021/10/21 00:01:29;;;;;;;7.82;2.22;;;;;;;;;;4953879;28;20035;-58
2021/10/21 00:03:55;;;;;;;9.30;2.45;;;;;;;;;;4952368;28;20055;-56
2021/10/21 00:06:21;;;;;;;5.80;2.13;;;;;;;;;;4953815;28;21011;-55
2021/10/21 00:08:47;;;;;;;10.68;2.35;;;;;;;;;;4954104;28;20101;-58
2021/10/21 00:11:12;;;;;;;9.20;1.83;;;;;;;;;;4951116;28;20476;-56
2021/10/21 00:13:38;;;;;;;6.05;2.25;;;;;;;;;;4949819;28;20481;-57
2021/10/21 00:16:04;;;;;;;7.25;2.08;;;;;;;;;;4949313;28;20573;-57
2021/10/21 00:18:30;;;;;;;9.93;2.53;;;;;;;;;;4950604;28;20043;-57
2021/10/21 00:20:56;;;;;;;16.92;2.50;;;;;;;;;;4952394;28;20039;-58
2021/10/21 00:23:22;;;;;;;10.25;2.40;;;;;;;;;;4953033;28;20142;-58
2021/10/21 00:25:48;;;;;;;7.60;2.10;;;;;;;;;;4952395;28;20241;-58
2021/10/21 00:28:15;;;;;;;5.10;2.15;;;;;;;;;;4953920;28;20522;-57
2021/10/21 00:30:40;;;;;;;11.55;2.10;;;;;;;;;;4953047;28;20043;-57
2021/10/21 00:33:06;;;;;;;6.68;2.38;;;;;;;;;;4951520;28;20122;-58
2021/10/21 00:35:32;;;;;;;10.25;2.50;;;;;;;;;;4950508;28;20031;-58
2021/10/21 00:37:58;;;;;;;12.52;2.28;;;;;;;;;;4950787;28;20073;-58
2021/10/21 00:40:24;;;;;;;11.55;2.08;;;;;;;;;;4950508;28;20035;-58
2021/10/21 00:42:50;;;;;;;10.40;2.05;;;;;;;;;;4952776;28;20055;-58
2021/10/21 00:45:16;;;;;;;10.52;2.40;;;;;;;;;;4951881;28;20427;-57
2021/10/21 00:47:42;;;;;;;7.07;2.35;;;;;;;;;;4949539;28;20035;-56
2021/10/21 00:50:08;;;;;;;14.45;2.33;;;;;;;;;;4953264;28;20042;-58
2021/10/21 00:52:34;;;;;;;8.68;2.05;;;;;;;;;;4954050;28;20039;-57
2021/10/21 00:55:00;;;;;;;10.27;2.22;;;;;;;;;;4955339;28;20042;-57
2021/10/21 00:57:26;;;;;;;11.75;2.80;;;;;;;;;;4963025;28;20500;-60
2021/10/21 00:59:52;;;;;;;11.43;3.13;;;;;;;;;;4992015;28;20039;-59
2021/10/21 01:02:18;;;;;;;8.63;2.30;;;;;;;;;;4980634;28;20092;-59
2021/10/21 01:04:44;;;;;;;11.02;2.22;;;;;;;;;;4980168;28;20101;-59
2021/10/21 01:07:11;;;;;;;11.68;2.78;;;;;;;;;;4976354;28;20105;-59
2021/10/21 01:09:38;;;;;;;12.38;2.33;;;;;;;;;;4960085;28;20039;-59
2021/10/21 01:12:04;;;;;;;10.82;2.08;;;;;;;;;;4972909;28;20124;-59
2021/10/21 01:14:30;;;;;;;10.00;2.38;;;;;;;;;;4953915;28;20062;-58
2021/10/21 01:16:56;;;;;;;10.60;3.00;;;;;;;;;;4955684;28;20445;-59
2021/10/21 01:19:23;;;;;;;9.30;2.80;;;;;;;;;;4954449;28;20431;-58
2021/10/21 01:21:50;;;;;;;10.18;2.90;;;;;;;;;;4953648;28;20046;-60
2021/10/21 01:24:17;;;;;;;15.27;4.93;;;;;;;;;;4953892;28;20039;-58
2021/10/21 01:26:43;;;;;;;13.00;2.97;;;;;;;;;;4954169;28;21798;-58
2021/10/21 01:29:10;;;;;;;10.38;2.40;;;;;;;;;;4956385;28;20066;-59
2021/10/21 01:31:37;;;;;;;17.48;2.75;;;;;;;;;;4970083;28;20039;-59
2021/10/21 01:34:07;;;;;;;20.52;2.45;;;;;;;;;;4958855;28;20105;-60
2021/10/21 01:36:33;;;;;;;14.50;2.42;;;;;;;;;;4960292;28;20042;-58
2021/10/21 01:38:59;;;;;;;12.05;2.63;;;;;;;;;;4959345;28;20047;-60
2021/10/21 01:41:25;;;;;;;6.90;2.50;;;;;;;;;;4950526;28;21496;-59
2021/10/21 01:43:52;;;;;;;15.88;2.67;;;;;;;;;;4963920;28;20058;-61
2021/10/21 01:46:20;;;;;;;9.15;2.63;;;;;;;;;;4955921;28;20043;-60
2021/10/21 01:48:48;;;;;;;7.35;2.20;;;;;;;;;;4957858;28;20696;-57
2021/10/21 01:51:15;;;;;;;16.20;3.05;;;;;;;;;;4954383;28;20054;-59
2021/10/21 01:53:41;;;;;;;12.32;2.90;;;;;;;;;;4956916;28;20039;-57
2021/10/21 01:56:07;;;;;;;7.57;2.70;;;;;;;;;;4970486;28;20805;-58
2021/10/21 01:58:33;;;;;;;11.60;2.55;;;;;;;;;;4954950;28;20050;-58
2021/10/21 02:00:59;;;;;;;6.13;2.47;;;;;;;;;;4953751;28;20035;-58
2021/10/21 02:03:25;;;;;;;6.45;2.03;;;;;;;;;;4955842;28;20206;-58
2021/10/21 02:05:51;;;;;;;7.72;2.58;;;;;;;;;;4954285;28;20043;-57
2021/10/21 02:08:17;;;;;;;24.45;3.03;;;;;;;;;;4953417;28;20500;-58
2021/10/21 02:10:43;;;;;;;11.13;2.75;;;;;;;;;;4947361;28;20051;-58
2021/10/21 02:13:08;;;;;;;15.30;2.63;;;;;;;;;;4946966;28;20082;-57
2021/10/21 02:15:34;;;;;;;11.52;2.25;;;;;;;;;;4952849;28;20110;-60
2021/10/21 02:18:00;;;;;;;11.10;2.08;;;;;;;;;;4948044;28;20158;-59
2021/10/21 02:20:26;;;;;;;12.55;2.08;;;;;;;;;;4940103;28;20179;-58
2021/10/21 02:22:52;;;;;;;12.18;2.00;;;;;;;;;;4955549;28;20135;-60
2021/10/21 02:25:18;;;;;;;13.18;2.22;;;;;;;;;;4969392;28;20078;-58
2021/10/21 02:27:44;;;;;;;8.60;2.03;;;;;;;;;;4955355;28;20899;-59
2021/10/21 02:30:12;;;;;;;9.65;2.22;;;;;;;;;;4956938;28;20190;-57
2021/10/21 02:32:38;;;;;;;19.73;2.65;;;;;;;;;;4955611;28;20122;-54
2021/10/21 02:35:04;;;;;;;16.75;2.50;;;;;;;;;;4956127;28;20039;-57
2021/10/21 02:37:30;;;;;;;9.07;1.83;;;;;;;;;;4957943;28;20173;-55
2021/10/21 02:39:56;;;;;;;7.68;1.65;;;;;;;;;;4956249;28;20134;-58
2021/10/21 02:42:22;;;;;;;9.70;2.58;;;;;;;;;;4949185;28;20054;-57
2021/10/21 02:44:48;;;;;;;6.43;2.25;;;;;;;;;;4955407;28;20058;-60
2021/10/21 02:47:14;;;;;;;14.60;2.40;;;;;;;;;;4953099;28;20050;-58
2021/10/21 02:49:39;;;;;;;11.43;1.80;;;;;;;;;;4953336;28;20039;-58
2021/10/21 02:52:05;;;;;;;9.43;1.70;;;;;;;;;;4954741;28;20050;-57
2021/10/21 02:54:31;;;;;;;8.60;1.80;;;;;;;;;;4952725;28;20030;-54
2021/10/21 02:56:58;;;;;;;9.45;1.63;;;;;;;;;;4952786;28;20570;-58
2021/10/21 02:59:24;;;;;;;10.60;2.20;;;;;;;;;;4954203;28;20050;-57
2021/10/21 03:01:50;;;;;;;9.13;1.75;;;;;;;;;;4954178;28;20047;-55
2021/10/21 03:04:15;;;;;;;8.88;2.08;;;;;;;;;;4953261;28;20109;-57
2021/10/21 03:06:41;;;;;;;4.43;1.52;;;;;;;;;;4952429;28;20050;-58
2021/10/21 03:09:07;;;;;;;7.55;1.67;;;;;;;;;;4947000;28;20039;-57
2021/10/21 03:11:33;;;;;;;10.38;1.58;;;;;;;;;;4947179;28;20043;-58
2021/10/21 03:13:59;;;;;;;6.85;2.00;;;;;;;;;;4952920;28;20533;-58
2021/10/21 03:16:29;;;;;;;11.32;2.17;;;;;;;;;;4955737;28;20035;-54
2021/10/21 03:18:55;;;;;;;6.72;2.00;;;;;;;;;;4953029;28;20054;-55
2021/10/21 03:21:21;;;;;;;6.10;1.88;;;;;;;;;;4952928;28;20039;-56
2021/10/21 03:23:47;;;;;;;6.95;2.20;;;;;;;;;;4952611;28;20499;-57
2021/10/21 03:26:13;;;;;;;10.10;2.22;;;;;;;;;;4952638;28;20050;-57
2021/10/21 03:28:39;;;;;;;8.82;2.13;;;;;;;;;;4951111;28;20039;-56
2021/10/21 03:31:05;;;;;;;8.18;1.85;;;;;;;;;;4945587;28;20611;-58
2021/10/21 03:33:31;;;;;;;13.25;2.40;;;;;;;;;;4951531;28;20039;-57
2021/10/21 03:35:57;;;;;;;18.15;2.40;;;;;;;;;;4952494;28;20039;-57
2021/10/21 03:38:23;;;;;;;8.73;2.05;;;;;;;;;;4952443;28;20043;-57
2021/10/21 03:40:49;;;;;;;9.73;2.03;;;;;;;;;;4953530;28;20448;-59
2021/10/21 03:43:15;;;;;;;7.88;2.20;;;;;;;;;;4953675;28;20047;-57
2021/10/21 03:45:41;;;;;;;8.85;2.65;;;;;;;;;;4954595;28;20099;-55
2021/10/21 03:48:06;;;;;;;8.30;2.30;;;;;;;;;;4967959;28;20039;-56
2021/10/21 03:50:32;;;;;;;7.97;2.05;;;;;;;;;;4952036;28;20436;-59
2021/10/21 03:52:58;;;;;;;7.85;2.22;;;;;;;;;;4952196;28;20504;-57
2021/10/21 03:55:24;;;;;;;10.43;2.65;;;;;;;;;;4950392;28;20089;-57
2021/10/21 03:57:50;;;;;;;7.75;2.03;;;;;;;;;;4967755;28;20392;-59
2021/10/21 04:00:16;;;;;;;10.85;3.17;;;;;;;;;;4952303;28;20039;-55
2021/10/21 04:02:42;;;;;;;12.73;2.70;;;;;;;;;;4966594;28;20960;-59
2021/10/21 04:05:08;;;;;;;9.80;2.85;;;;;;;;;;4953498;28;20503;-56
2021/10/21 04:07:34;;;;;;;10.25;2.55;;;;;;;;;;4950896;28;20038;-57
2021/10/21 04:10:00;;;;;;;7.25;2.60;;;;;;;;;;4949162;28;20061;-56
2021/10/21 04:12:27;;;;;;;13.45;2.67;;;;;;;;;;4951150;28;20042;-59
2021/10/21 04:14:53;;;;;;;15.57;2.60;;;;;;;;;;4951764;28;20629;-57
2021/10/21 04:17:21;;;;;;;13.73;3.33;;;;;;;;;;4952834;28;20043;-56
2021/10/21 04:19:47;;;;;;;10.65;2.95;;;;;;;;;;4951922;28;20035;-56
2021/10/21 04:22:15;;;;;;;23.10;3.30;;;;;;;;;;4951211;28;20034;-57
2021/10/21 04:24:41;;;;;;;13.40;3.55;;;;;;;;;;4951357;28;20055;-59
2021/10/21 04:27:07;;;;;;;9.43;2.67;;;;;;;;;;4947081;28;20846;-56
2021/10/21 04:29:33;;;;;;;14.90;3.40;;;;;;;;;;4949403;28;20114;-55
2021/10/21 04:31:59;;;;;;;11.27;3.00;;;;;;;;;;4950150;28;20043;-57
2021/10/21 04:34:25;;;;;;;9.43;3.30;;;;;;;;;;4948938;28;20043;-56
2021/10/21 04:36:50;;;;;;;9.98;3.10;;;;;;;;;;4951346;28;20432;-56
2021/10/21 04:39:16;;;;;;;10.23;3.20;;;;;;;;;;4951027;28;20111;-58
2021/10/21 04:41:42;;;;;;;17.75;3.55;;;;;;;;;;4949755;28;20031;-59
2021/10/21 04:44:08;;;;;;;10.52;2.92;;;;;;;;;;4950997;28;20058;-57
2021/10/21 04:46:34;;;;;;;7.60;2.88;;;;;;;;;;4950808;28;20039;-55
2021/10/21 04:49:00;;;;;;;12.75;3.38;;;;;;;;;;4951326;28;20117;-58
2021/10/21 04:51:26;;;;;;;12.27;3.13;;;;;;;;;;4951235;28;20554;-59
2021/10/21 04:53:51;;;;;;;17.83;3.80;;;;;;;;;;4950785;28;20424;-59
2021/10/21 04:56:17;;;;;;;12.52;3.63;;;;;;;;;;4950802;28;20928;-58
2021/10/21 04:58:43;;;;;;;11.85;4.05;;;;;;;;;;4951063;28;20126;-56
2021/10/21 05:01:09;;;;;;;15.80;4.18;;;;;;;;;;4950446;28;20039;-57
2021/10/21 05:03:35;;;;;;;12.90;4.72;;;;;;;;;;4950832;28;20118;-57
2021/10/21 05:06:01;;;;;;;16.83;4.07;;;;;;;;;;4954035;28;20122;-58
2021/10/21 05:08:27;;;;;;;13.15;4.20;;;;;;;;;;4950454;28;20081;-58
2021/10/21 05:10:53;;;;;;;11.32;4.32;;;;;;;;;;4952698;28;20412;-58
2021/10/21 05:13:18;;;;;;;8.77;3.95;;;;;;;;;;4951634;28;20082;-58
2021/10/21 05:15:44;;;;;;;10.10;4.18;;;;;;;;;;4953482;28;20034;-60
2021/10/21 05:18:10;;;;;;;11.68;4.13;;;;;;;;;;4953532;28;20036;-59
2021/10/21 05:20:38;;;;;;;13.57;3.80;;;;;;;;;;4952499;28;20081;-58
2021/10/21 05:23:04;;;;;;;11.82;3.92;;;;;;;;;;4951841;28;20053;-58
2021/10/21 05:25:30;;;;;;;10.90;4.13;;;;;;;;;;4949129;28;20061;-59
2021/10/21 05:27:56;;;;;;;11.40;3.53;;;;;;;;;;4950204;28;20035;-56
2021/10/21 05:30:23;;;;;;;18.20;3.95;;;;;;;;;;4952481;28;20057;-57
2021/10/21 05:32:48;;;;;;;15.60;3.83;;;;;;;;;;4952560;28;20039;-59
2021/10/21 05:35:14;;;;;;;14.95;4.30;;;;;;;;;;4954011;28;20049;-60
2021/10/21 05:37:40;;;;;;;8.43;3.72;;;;;;;;;;4952991;28;20066;-55
2021/10/21 05:40:06;;;;;;;9.93;4.10;;;;;;;;;;4952425;28;20381;-56
2021/10/21 05:42:33;;;;;;;15.38;4.40;;;;;;;;;;4952247;28;20039;-60
2021/10/21 05:44:59;;;;;;;8.50;4.00;;;;;;;;;;4950427;28;20948;-57
2021/10/21 05:47:25;;;;;;;16.63;4.13;;;;;;;;;;4951226;28;20484;-58
2021/10/21 05:49:51;;;;;;;16.05;4.18;;;;;;;;;;4952375;28;20129;-55
2021/10/21 05:52:20;;;;;;;10.43;4.00;;;;;;;;;;4953572;28;20495;-56
2021/10/21 05:54:46;;;;;;;13.80;4.93;;;;;;;;;;4951881;28;20069;-59
2021/10/21 05:57:12;;;;;;;9.57;3.63;;;;;;;;;;4955449;28;20031;-58
2021/10/21 05:59:38;;;;;;;14.77;4.40;;;;;;;;;;4969792;28;20054;-58
2021/10/21 06:02:04;;;;;;;7.88;3.85;;;;;;;;;;4954498;28;20035;-59
2021/10/21 06:04:30;;;;;;;11.80;3.88;;;;;;;;;;4953237;28;20618;-54
2021/10/21 06:06:56;;;;;;;8.45;3.83;;;;;;;;;;4953645;28;20439;-57
2021/10/21 06:09:21;;;;;;;10.65;3.85;;;;;;;;;;4951952;28;20138;-58
2021/10/21 06:11:47;;;;;;;20.13;3.60;;;;;;;;;;4953143;28;20059;-59
2021/10/21 06:14:13;;;;;;;11.82;2.97;;;;;;;;;;4954031;28;20042;-59
2021/10/21 06:16:42;;;;;;;11.27;3.42;;;;;;;;;;4957935;28;20579;-58
2021/10/21 06:19:08;;;;;;;13.45;3.72;;;;;;;;;;4957975;28;20198;-57
2021/10/21 06:21:33;;;;;;;7.60;3.17;;;;;;;;;;4953997;28;20051;-58
2021/10/21 06:23:59;;;;;;;6.93;2.83;;;;;;;;;;4952887;28;20082;-57
2021/10/21 06:26:26;;;;;;;9.13;2.95;;;;;;;;;;4953284;28;20035;-58
2021/10/21 06:28:53;;;;;;;7.60;2.70;;;;;;;;;;4969280;28;20055;-58
2021/10/21 06:31:21;;;;;;;4.82;2.42;;;;;;;;;;4956504;28;20039;-57
2021/10/21 06:33:48;;;;;;;8.68;2.90;;;;;;;;;;4957883;28;20038;-55
2021/10/21 06:36:14;;;;;;;5.90;3.08;;;;;;;;;;4956402;28;20062;-55
2021/10/21 06:38:40;;;;;;;8.20;2.83;;;;;;;;;;4959735;28;20040;-58
2021/10/21 06:41:06;;;;;;;7.95;2.45;;;;;;;;;;4967231;28;20045;-53
2021/10/21 06:43:32;;;;;;;6.32;2.80;;;;;;;;;;4977431;28;20051;-57
2021/10/21 06:46:00;;;;;;;6.38;2.63;;;;;;;;;;4981097;28;20046;-59
2021/10/21 06:48:26;;;;;;;9.52;2.63;;;;;;;;;;4984284;28;20098;-56
2021/10/21 06:50:52;;;;;;;11.65;2.58;;;;;;;;;;4982263;28;20035;-56
2021/10/21 06:53:19;;;;;;;6.93;2.85;;;;;;;;;;4981116;28;20053;-60
2021/10/21 06:55:45;;;;;;;5.32;2.05;;;;;;;;;;4971846;28;20043;-56
2021/10/21 06:58:11;;;;;;;4.82;2.17;;;;;;;;;;4964597;28;20122;-58
2021/10/21 07:00:37;;;;;;;3.40;1.77;;;;;;;;;;4961227;28;20127;-58
2021/10/21 07:03:03;;;;;;;6.18;1.58;;;;;;;;;;4953347;28;20035;-58
2021/10/21 07:05:32;;;;;;;3.72;1.63;;;;;;;;;;4950149;28;20053;-58
2021/10/21 07:07:58;;;;;;;8.10;1.70;;;;;;;;;;4959601;28;20065;-58
2021/10/21 07:10:24;;;;;;;3.45;1.25;;;;;;;;;;4956261;28;20122;-57
2021/10/21 07:12:50;;;;;;;3.67;1.08;;;;;;;;;;4955685;28;20051;-55
2021/10/21 07:15:16;;;;;;;4.50;1.10;;;;;;;;;;4953143;28;20047;-58
2021/10/21 07:17:42;;;;;;;3.47;1.00;;;;;;;;;;4949461;28;20193;-56
2021/10/21 07:20:08;;;;;;;5.22;1.23;;;;;;;;;;4957008;28;20161;-56
2021/10/21 07:22:34;;;;;;;3.38;0.90;;;;;;;;;;4954787;28;20054;-58
2021/10/21 07:25:00;;;;;;;3.75;0.80;;;;;;;;;;4953421;28;20705;-56
2021/10/21 07:27:27;;;;;;;2.47;0.82;;;;;;;;;;4953475;28;20042;-57
2021/10/21 07:29:52;;;;;;;1.50;0.60;;;;;;;;;;4952892;28;20054;-58
2021/10/21 07:32:18;;;;;;;2.03;0.60;;;;;;;;;;4953034;28;20047;-57
2021/10/21 07:34:44;;;;;;;2.00;0.70;;;;;;;;;;4953559;28;20109;-58
2021/10/21 07:37:10;;;;;;;1.88;0.60;;;;;;;;;;4954192;28;20035;-58
2021/10/21 07:39:36;;;;;;;1.70;0.60;;;;;;;;;;4954696;28;20502;-58
2021/10/21 07:42:03;;;;;;;2.30;0.55;;;;;;;;;;4955768;28;20101;-59
2021/10/21 07:44:33;;;;;;;2.15;0.57;;;;;;;;;;4953628;28;20070;-58
2021/10/21 07:46:59;;;;;;;2.88;0.55;;;;;;;;;;4954743;28;20039;-59
2021/10/21 07:49:25;;;;;;;1.95;0.55;;;;;;;;;;4953917;28;20043;-58
2021/10/21 07:51:51;;;;;;;1.83;0.68;;;;;;;;;;4945768;28;20046;-56
2021/10/21 07:54:17;;;;;;;1.75;0.60;;;;;;;;;;4953969;28;20094;-59
2021/10/21 07:56:43;;;;;;;1.88;0.60;;;;;;;;;;4955369;28;20039;-57
2021/10/21 07:59:09;;;;;;;6.07;0.70;;;;;;;;;;4954248;28;20444;-58
2021/10/21 08:01:35;;;;;;;4.72;0.80;;;;;;;;;;4943860;28;20047;-56
2021/10/21 08:04:00;;;;;;;3.13;0.70;;;;;;;;;;4937620;28;20505;-58
2021/10/21 08:06:27;;;;;;;1.33;0.50;;;;;;;;;;4946635;28;20041;-57
2021/10/21 08:08:55;;;;;;;1.58;0.60;;;;;;;;;;4951984;28;20039;-58
2021/10/21 08:11:21;;;;;;;1.63;0.60;;;;;;;;;;4938950;28;20450;-58
2021/10/21 08:13:47;;;;;;;1.63;0.60;;;;;;;;;;4953447;28;20079;-57
2021/10/21 08:16:13;;;;;;;1.77;0.50;;;;;;;;;;4953438;28;20047;-59
2021/10/21 08:18:39;;;;;;;2.50;0.70;;;;;;;;;;4954567;28;20043;-56
2021/10/21 08:21:05;;;;;;;2.10;0.70;;;;;;;;;;4955731;28;20062;-58
2021/10/21 08:23:31;;;;;;;1.48;0.60;;;;;;;;;;4953425;28;20039;-54
2021/10/21 08:25:56;;;;;;;3.42;0.55;;;;;;;;;;4957068;28;20064;-58
2021/10/21 08:28:22;;;;;;;1.45;0.43;;;;;;;;;;4955399;28;20489;-59
2021/10/21 08:30:48;;;;;;;7.28;0.70;;;;;;;;;;4956028;28;20202;-59
2021/10/21 08:33:14;;;;;;;1.42;0.50;;;;;;;;;;4957343;28;20385;-59
2021/10/21 08:35:40;;;;;;;1.73;0.70;;;;;;;;;;4955404;28;20117;-59
2021/10/21 08:38:06;;;;;;;1.65;0.60;;;;;;;;;;4955893;28;20464;-59
2021/10/21 08:40:33;;;;;;;0.82;0.40;;;;;;;;;;4954887;28;20082;-58
2021/10/21 08:43:03;;;;;;;2.40;0.60;;;;;;;;;;4951229;28;20054;-58
2021/10/21 08:45:29;;;;;;;1.55;0.57;;;;;;;;;;4945417;28;20050;-57
2021/10/21 08:48:00;;;;;;;1.05;0.40;;;;;;;;;;4952477;28;20043;-58
2021/10/21 08:50:26;;;;;;;1.30;0.43;;;;;;;;;;4951344;28;20046;-58
2021/10/21 08:52:52;;;;;;;2.30;0.50;;;;;;;;;;4951401;28;20799;-58
2021/10/21 08:55:18;;;;;;;2.08;0.60;;;;;;;;;;4952191;28;20114;-58
2021/10/21 08:57:44;;;;;;;1.75;0.43;;;;;;;;;;4951674;28;20426;-59
2021/10/21 09:00:12;;;;;;;3.40;0.60;;;;;;;;;;4951851;28;20035;-56
2021/10/21 09:07:57;;;;;;;1.67;0.50;;;;;;;;;;4957200;28;20102;-58
2021/10/21 09:10:23;;;;;;;1.15;0.50;;;;;;;;;;4937341;28;20046;-56
2021/10/21 09:12:49;;;;;;;1.33;0.50;;;;;;;;;;4935894;28;20040;-57
2021/10/21 09:15:19;;;;;;;1.58;0.40;;;;;;;;;;4951952;28;20058;-56
2021/10/21 09:17:46;;;;;;;0.98;0.40;;;;;;;;;;4952929;28;20050;-59
2021/10/21 09:20:32;;;;;;;0.93;0.40;;;;;;;;;;4953675;28;20036;-58
2021/10/21 09:22:59;;;;;;;0.85;0.40;;;;;;;;;;4951024;28;20081;-55
2021/10/21 09:25:27;;;;;;;4.15;0.63;;;;;;;;;;4952323;28;20051;-58
2021/10/21 09:27:55;;;;;;;2.63;0.60;;;;;;;;;;4954864;28;20059;-58
2021/10/21 09:30:27;;;;;;;1.52;0.60;;;;;;;;;;4951792;28;20042;-57
2021/10/21 09:32:53;;;;;;;1.30;0.40;;;;;;;;;;4951703;28;20045;-58
2021/10/21 09:35:21;;;;;;;0.77;0.50;;;;;;;;;;4952078;28;20039;-56
2021/10/21 09:37:48;;;;;;;0.65;0.40;;;;;;;;;;4967638;28;20054;-58
2021/10/21 09:40:15;;;;;;;1.40;0.43;;;;;;;;;;4953327;28;20046;-57
2021/10/21 09:42:45;;;;;;;1.13;0.40;;;;;;;;;;4941789;28;20696;-56
2021/10/21 09:45:12;;;;;;;1.58;0.45;;;;;;;;;;4944900;28;20778;-56
2021/10/21 09:47:38;;;;;;;0.85;0.40;;;;;;;;;;4954818;28;20053;-58
2021/10/21 09:50:16;;;;;;;2.45;0.40;;;;;;;;;;4957915;28;20531;-54
2021/10/21 09:52:43;;;;;;;0.95;0.47;;;;;;;;;;4953787;28;20053;-56
2021/10/21 09:55:12;;;;;;;1.27;0.40;;;;;;;;;;4955406;28;20050;-54
2021/10/21 09:57:38;;;;;;;1.85;0.50;;;;;;;;;;4954543;28;20169;-56
2021/10/21 10:00:06;;;;;;;1.48;0.43;;;;;;;;;;4949291;28;20049;-57
2021/10/21 10:02:33;;;;;;;0.75;0.40;;;;;;;;;;4955270;28;20050;-59
2021/10/21 10:05:04;;;;;;;1.35;0.50;;;;;;;;;;4955591;28;20407;-59
2021/10/21 10:07:35;;;;;;;3.35;0.50;;;;;;;;;;4955475;28;20045;-58
2021/10/21 10:10:02;;;;;;;5.18;0.57;;;;;;;;;;4955697;28;20049;-59
2021/10/21 10:12:29;;;;;;;1.38;0.40;;;;;;;;;;4946692;28;20042;-58
2021/10/21 10:14:56;;;;;;;6.55;0.60;;;;;;;;;;4955997;28;20118;-56
2021/10/21 10:17:22;;;;;;;2.58;0.50;;;;;;;;;;4954629;28;20039;-58
2021/10/21 10:19:49;;;;;;;8.38;0.60;;;;;;;;;;4957703;28;20042;-58
2021/10/21 10:22:21;;;;;;;3.22;0.50;;;;;;;;;;4971902;28;20049;-59
2021/10/21 10:24:47;;;;;;;1.25;0.43;;;;;;;;;;4953401;28;20059;-57
2021/10/21 10:27:27;;;;;;;5.40;0.63;;;;;;;;;;4956858;28;20039;-59
2021/10/21 10:29:53;;;;;;;3.10;0.60;;;;;;;;;;4958191;28;20524;-59
2021/10/21 10:32:28;;;;;;;6.43;0.50;;;;;;;;;;4958350;28;20045;-59
2021/10/21 10:34:54;;;;;;;1.08;0.43;;;;;;;;;;4956899;28;20126;-58
2021/10/21 10:37:20;;;;;;;1.05;0.35;;;;;;;;;;4951646;28;20042;-59
2021/10/21 10:39:52;;;;;;;0.80;0.38;;;;;;;;;;4965297;28;20050;-59
2021/10/21 10:42:40;;;;;;;2.80;0.40;;;;;;;;;;4952224;28;20046;-59
2021/10/21 10:45:07;;;;;;;0.88;0.40;;;;;;;;;;4946056;28;20062;-58
2021/10/21 10:47:54;;;;;;;0.68;0.30;;;;;;;;;;4956893;28;20046;-56
2021/10/21 10:50:23;;;;;;;2.72;0.43;;;;;;;;;;4957229;28;20049;-58
2021/10/21 10:52:52;;;;;;;0.50;0.30;;;;;;;;;;4956371;28;20046;-57
2021/10/21 10:55:21;;;;;;;0.77;0.30;;;;;;;;;;4950351;28;20109;-57
2021/10/21 10:57:48;;;;;;;1.73;0.40;;;;;;;;;;4955693;28;20031;-56
2021/10/21 11:00:32;;;;;;;0.98;0.30;;;;;;;;;;4942315;28;20035;-55
2021/10/21 11:02:58;;;;;;;1.42;0.50;;;;;;;;;;4953111;28;20636;-58
2021/10/21 11:05:45;;;;;;;1.02;0.40;;;;;;;;;;4948413;28;20115;-58
2021/10/21 11:08:15;;;;;;;1.05;0.40;;;;;;;;;;4956530;28;20035;-56
2021/10/21 11:10:44;;;;;;;1.17;0.50;;;;;;;;;;4953646;28;20213;-58
2021/10/21 11:13:21;;;;;;;0.68;0.38;;;;;;;;;;4953480;28;20055;-58
2021/10/21 11:15:47;;;;;;;0.80;0.38;;;;;;;;;;4954517;28;20042;-58
2021/10/21 11:18:34;;;;;;;0.85;0.40;;;;;;;;;;4956699;28;20844;-57
2021/10/21 11:21:02;;;;;;;0.65;0.30;;;;;;;;;;4935868;28;20146;-58
2021/10/21 11:23:28;;;;;;;1.10;0.47;;;;;;;;;;4946726;28;20043;-58
2021/10/21 11:26:04;;;;;;;0.52;0.30;;;;;;;;;;4957074;28;20041;-58
2021/10/21 11:28:31;;;;;;;1.23;0.43;;;;;;;;;;4953619;28;20035;-58
2021/10/21 11:30:57;;;;;;;1.15;0.40;;;;;;;;;;4954258;28;20043;-58
2021/10/21 11:33:23;;;;;;;1.17;0.40;;;;;;;;;;4954810;28;20043;-56
2021/10/21 11:35:51;;;;;;;1.05;0.40;;;;;;;;;;4956577;28;20149;-58
2021/10/21 11:38:18;;;;;;;0.45;0.30;;;;;;;;;;4954030;28;20043;-58
2021/10/21 11:40:45;;;;;;;0.77;0.40;;;;;;;;;;4954161;28;20173;-57
2021/10/21 11:43:24;;;;;;;1.27;0.50;;;;;;;;;;4955241;28;20186;-58
2021/10/21 11:45:56;;;;;;;0.43;0.30;;;;;;;;;;4953497;28;20074;-58
2021/10/21 11:48:28;;;;;;;1.65;0.50;;;;;;;;;;4952061;28;20126;-58
2021/10/21 11:50:54;;;;;;;0.82;0.40;;;;;;;;;;4953009;28;20062;-58
2021/10/21 11:53:21;;;;;;;3.40;0.40;;;;;;;;;;4951298;28;20031;-59
2021/10/21 11:55:48;;;;;;;5.43;0.82;;;;;;;;;;4946912;28;20090;-58
2021/10/21 11:58:19;;;;;;;7.63;2.08;;;;;;;;;;4953244;28;20039;-58
2021/10/21 12:00:48;;;;;;;1.88;0.50;;;;;;;;;;4943048;28;20504;-58
2021/10/21 12:03:15;;;;;;;1.65;0.57;;;;;;;;;;4945408;28;20063;-57
2021/10/21 12:05:42;;;;;;;1.35;0.52;;;;;;;;;;4953591;28;20062;-58
2021/10/21 12:08:11;;;;;;;1.15;0.43;;;;;;;;;;4962897;28;20093;-58
2021/10/21 12:10:43;;;;;;;1.70;0.50;;;;;;;;;;4952935;28;20127;-58
2021/10/21 12:13:24;;;;;;;1.17;0.50;;;;;;;;;;4954868;28;20058;-59
2021/10/21 12:15:51;;;;;;;0.98;0.47;;;;;;;;;;4955652;28;20035;-59
2021/10/21 12:18:17;;;;;;;2.17;0.55;;;;;;;;;;4952974;28;20050;-59
2021/10/21 12:21:03;;;;;;;1.92;0.60;;;;;;;;;;4951599;28;20121;-61
2021/10/21 12:23:33;;;;;;;1.48;0.60;;;;;;;;;;4955476;28;20077;-59
2021/10/21 12:26:00;;;;;;;2.17;0.50;;;;;;;;;;4956272;28;20038;-59
2021/10/21 12:28:46;;;;;;;1.38;0.50;;;;;;;;;;4955861;28;20053;-60
2021/10/21 12:31:28;;;;;;;1.92;0.40;;;;;;;;;;4952952;28;20045;-58
2021/10/21 12:33:59;;;;;;;1.10;0.43;;;;;;;;;;4949521;28;20039;-59
2021/10/21 12:36:30;;;;;;;1.27;0.40;;;;;;;;;;4957125;28;20043;-57
2021/10/21 12:39:03;;;;;;;1.88;0.68;;;;;;;;;;4964663;28;21009;-56
2021/10/21 12:41:29;;;;;;;;;;;;;;;;;;4969096;28;20129;-58
2021/10/21 12:44:04;;;;;;;1.35;0.50;;;;;;;;;;4977997;28;19926;-57
2021/10/21 12:46:30;;;;;;;1.65;0.52;;;;;;;;;;4982137;28;20043;-58
2021/10/21 12:49:09;;;;;;;1.27;0.43;;;;;;;;;;4975314;28;20049;-60
2021/10/21 12:51:35;;;;;;;2.05;0.50;;;;;;;;;;4955008;28;20106;-60
2021/10/21 12:54:01;;;;;;;0.88;0.40;;;;;;;;;;4959991;28;20130;-56
2021/10/21 12:56:27;;;;;;;6.18;0.57;;;;;;;;;;4956460;28;20130;-59
2021/10/21 12:59:00;;;;;;;2.30;0.50;;;;;;;;;;4950984;28;20087;-58
2021/10/21 13:01:26;;;;;;;1.63;0.40;;;;;;;;;;4945428;28;20041;-59
2021/10/21 13:03:52;;;;;;;0.73;0.40;;;;;;;;;;4951347;28;20141;-60
2021/10/21 13:06:19;;;;;;;3.85;0.60;;;;;;;;;;4962488;28;20119;-58
2021/10/21 13:08:51;;;;;;;1.13;0.50;;;;;;;;;;4955591;28;20057;-59
2021/10/21 13:11:20;;;;;;;1.15;0.40;;;;;;;;;;4948099;28;20038;-59
2021/10/21 13:13:52;;;;;;;1.67;0.50;;;;;;;;;;4955378;28;20051;-59
2021/10/21 13:16:19;;;;;;;1.15;0.50;;;;;;;;;;4953857;28;20138;-57
2021/10/21 13:18:51;;;;;;;1.02;0.40;;;;;;;;;;4954994;28;20050;-58
2021/10/21 13:21:17;;;;;;;2.47;0.57;;;;;;;;;;4957957;28;20046;-57
2021/10/21 13:23:43;;;;;;;2.10;0.57;;;;;;;;;;4953595;28;20065;-56
2021/10/21 13:26:09;;;;;;;1.95;0.60;;;;;;;;;;4953245;28;20035;-58
2021/10/21 13:28:35;;;;;;;4.82;0.70;;;;;;;;;;4952601;28;20039;-59
2021/10/21 13:31:01;;;;;;;4.35;0.57;;;;;;;;;;4969764;28;20051;-59
2021/10/21 13:33:27;;;;;;;3.00;0.70;;;;;;;;;;4951094;28;20062;-59
2021/10/21 13:35:53;;;;;;;10.07;0.95;;;;;;;;;;4946000;28;20507;-58
2021/10/21 13:38:19;;;;;;;6.75;0.90;;;;;;;;;;4950686;28;20123;-59
2021/10/21 13:40:45;;;;;;;3.67;0.70;;;;;;;;;;4949071;28;20095;-58
2021/10/21 13:43:11;;;;;;;3.67;0.60;;;;;;;;;;4950583;28;20102;-58
2021/10/21 13:45:37;;;;;;;2.35;0.55;;;;;;;;;;4951648;28;20055;-58
2021/10/21 13:48:07;;;;;;;4.00;0.82;;;;;;;;;;4955147;28;20035;-58
2021/10/21 13:50:33;;;;;;;2.25;0.65;;;;;;;;;;4952200;28;20050;-58
2021/10/21 13:52:59;;;;;;;2.85;0.73;;;;;;;;;;4965411;28;20185;-60
2021/10/21 13:55:25;;;;;;;1.65;0.70;;;;;;;;;;4944915;28;20032;-59
2021/10/21 13:57:52;;;;;;;4.93;0.80;;;;;;;;;;4950266;28;20057;-60
2021/10/21 14:00:18;;;;;;;2.67;0.63;;;;;;;;;;4949557;28;20041;-59
2021/10/21 14:02:44;;;;;;;2.50;0.75;;;;;;;;;;4946287;28;20793;-59
2021/10/21 14:05:10;;;;;;;10.10;0.80;;;;;;;;;;4946384;28;20039;-59
2021/10/21 14:07:36;;;;;;;3.05;0.80;;;;;;;;;;4947319;28;20043;-59
2021/10/21 14:10:03;;;;;;;4.25;0.98;;;;;;;;;;4953897;28;20507;-59
2021/10/21 14:12:29;;;;;;;3.78;0.80;;;;;;;;;;4948421;28;20288;-60
2021/10/21 14:14:56;;;;;;;4.05;0.80;;;;;;;;;;4952770;28;20058;-57
2021/10/21 14:17:22;;;;;;;10.23;1.13;;;;;;;;;;4951742;28;21666;-60
2021/10/21 14:19:48;;;;;;;4.63;0.85;;;;;;;;;;4954389;28;20083;-59
2021/10/21 14:22:14;;;;;;;7.53;1.00;;;;;;;;;;4952505;28;20043;-59
2021/10/21 14:24:40;;;;;;;1.45;0.55;;;;;;;;;;4946572;28;20062;-57
2021/10/21 14:27:10;;;;;;;3.85;0.75;;;;;;;;;;4953069;28;20035;-58
2021/10/21 14:29:37;;;;;;;3.97;0.95;;;;;;;;;;4951844;28;20045;-58
2021/10/21 14:32:03;;;;;;;1.65;0.50;;;;;;;;;;4951701;28;20035;-59
2021/10/21 14:34:30;;;;;;;3.42;0.63;;;;;;;;;;4951541;28;20093;-59
2021/10/21 14:36:56;;;;;;;2.00;0.52;;;;;;;;;;4955921;28;20130;-60
2021/10/21 14:39:22;;;;;;;9.35;0.90;;;;;;;;;;4953819;28;20030;-60
2021/10/21 14:41:48;;;;;;;4.85;0.90;;;;;;;;;;4971299;28;20589;-59
2021/10/21 14:44:14;;;;;;;1.67;0.50;;;;;;;;;;4955624;28;20117;-60
2021/10/21 14:46:40;;;;;;;4.18;1.08;;;;;;;;;;4956715;28;20459;-58